METAR Data
IDs: Format: Raw Decoded Include TAF

Data at: 1636 UTC 03 Dec 2021

ETNL 031620Z 20011G21KT 9999 -RASN BKN013 02/M00 Q1001 GRN